Rules & Bylaws Membership
Donkeys Like to Run! Humane Donkey Care and Training Grounded Training
2019 2018 2017 2016 2015 2014 2013 2012 2011 2010 Pre-2010
Sponsors Classifieds

2019 RACE RESULTS – Pack Burro Racing in Colorado

+ Expand All


+/- Clear Creek Georgetown Pack Burro Race - Saturday, May 25th, 2019

PLACEBIB #Runner NameBurro NameFinish Time
1 99 George Zack Jack 1:15:21
2 21 Bob Sweeney Yukon 1:15:22
3 17 Joe Polonsky Jake 1:15:27
4 100 Shad Mika Action Jackson 1:15:30
5 28 Shane Weigand Julia 1:15:56
6 23 John Vincent Crazy Horse 1:17:14
7 12 Tracy Loughlin Josie 1:17:16
8 90 Hal Walters Full Tilt Boogie 1:17:19
9 9 Andrew Knutsen Buckwheat 1:17:55
10 98 John Zack Big Mac 1:21:06
11 37 Mike Banasiak Sugar Ray 1:21:11
12 88 Kirt Courkamp Ricky Bobby 1:21:21
13 35 Aurora Rohan Alice 1:35:49
14 47 Chris Malherbe Donkers 1:35:52
15 5 Dave Edwards TAZ 1:35:55
16 41 Max Heistand TBA 1:37:56
17 50 Jennifer Stewart Sheba 1:40:20
18 45 Debra Luther Banjo 1:40:36
19 26 Benjamin Wann Burrito 1:41:33
20 52 Trevor Walker TBA 1:42:31
21 13 Alicia Miers Nestor 1:42:53
22 2 David Carner Ellroy 1:43:38
23 92 Eric Alstad Bo Duke 1:43:53
24 18 Brian Rawlings Lucky 1:51:29
25 24 Lon Vincent Dakota 1:51:52
26 30 KC Young Apache 1:53:41
27 7 Steve Indrehus Rambo 1:53:56
28 94 Lynn D. Sugar Shack 1:55:09
29 43 Ross Keller TBA 1:57:30
30 49 Natalie Malherbe Big Ben 1:57:31
31 44 Larry Klima TBA 1:57:32
32 36 Bridgette Binford TBA 1:57:35
33 8 Dallas Kaufmann Harper 1:57:38
34 25 Amber Wann Darby 2:05:17
35 29 Michael Welk Oscar 2:05:21
36 48 Megan Malherbe Nash 2:05:28
37 46 Aidan Malherbe Winkie 2:05:30
38 14 Dewane Mosher Sysco 2:05:57
39 10 Melanie Layton Goose 2:09:51
40 89 Tim Johnson Maverick 2:09:51
41 11 Jack Lohmann Einstein 2:09:54
42 97 Pam Fitzsimmons Esther 2:11:17
43 1 Paul Anderson Al Dean 2:12:39
44 27 Brad Wann Cheeto 2:24:05
45 93 Linda D. Jacque 2:27:33
46 38 Alison Conrad Thumper 2:27:40
47 22 Dancer Vernet Marsha 2:27:43
48 96 Kenda Newman Piper 2:27:58
49 95 Jessica Morris Spiff 2:33:42
50 16 Caz Perez Brigham 2:33:46
51 42 Amy Holtschlag TBA 2:40:12
52 19 Sarah Roueche Koshare 2:42:19
53 40 Al Frei Doc 2:48:46
54 39 Meredith Eddy Mr. Ziffel 3:00:34
55 51 Stacey Todd Isaiah 3:00:35
56 91 Bill Lee Dolly 3:31:45
57 20 Joann Rouillard Justin 3:37:33


+/- Clear Creek Idaho Springs Pack Burro Race – May 26, 2019

Place Bib Runner Burro Time
1 111 Andrew Knutsen Buckwheat 00:50:13
2 121 Joe Polonsky Jake 00:50:13
3 135 George Zach Jack 00:50:15
4 181 Shad Mika Action Jackson 00:50:17
5 175 Kirt Courkamp Ricky Bobby 00:50:18
6 134 KC Young Apache 00:50:32
7 127 John Vincent Crazy Horse 00:50:33
8 115 Tracy Loughlin Josie 00:53:06
9 148 Smokey Burgess Storm Trooper 00:53:38
10 146 Rolan Brodeur Flash 00:56:24
11 122 Brian Rawlings Lucky 00:56:25
12 165 Chris Malherbe Donkers 00:58:35
13 103 David Carner Ellroy 00:58:58
14 105 Lynn D. Loki 1:00:26
15 125 Bob Sweeney Yukon 1:00:49
16 155 Amy Holtschlag Woody 1:03:10
17 116 Alicia Miers Nestor 1:03:11
18 132 Shane Weigand Julia 1:03:12
19 136 John Zack Big Mac 1:03:15
20 130 Benjamin Wann Sugar Ray 1:03:17
21 106 Dave Edwards Taz 1:003:34
22 167 Natalie Malherbe Big Ben 1:04:56
23 164 Aidan Malherbe Winkie 1:04:57
24 166 Megan Malherbe Nash 1:04:59
25 110 Dallas Kaufmann Harper 1:05:30
26 102 Paul Anderson Al Dean 1:06:32
27 184 Adrienne Gurbindo Earl 1:07:33
28 161 Coleen Loughlin Alic 1:07:34
29 108 Steve Indrehus Rambo 1:07:36
30 128 Lon Vincent Dakota 1:07:57
31 119 Tom OBrien Hershey 1:08:02
32 117 Dewane Mosher Sysco 1:08:30
33 133 Michael Welk Oscar 1:10:33
34 169 Jonathan Spencer Amanda 1:12:24
35 112 Melanie Layton Goodse 1:12:27
36 101 Eric Alstad Bo Duke 1:1:12:28
37 109 Tim Johnson Maverick 1:12:28
38 141 Hayden Blom Rocky 1:13:45
39 159 Laurel Doxsey Sheba 1:15:48
40 158 Michael Kirk Banjo 1:15:48
41 126 Dancer Vernet Marsha 1:16:36
42 145 Kevin Bonnell Cortez 1:16:38
43 123 Sarah Roueche Koshare 1:17:06
44 114 Jack Lohmann Einstein 1:17:07
45 149 Edward Coutu Doc 1:17:07
46 129 Amber Wann Darby 1:17:07
47 151 Kim Edwards Geronimo 1:18:47
48 173 Sarah Rummel Priscilla 1:19:03
49 180 Alyssa Muelken Bandit 1:19:03
50 153 Elvan Newman Burrito 1:19:08
51 120 Caz Perez Brigham 1:19:57
52 143 Wayne Blom Jedi 1:20:51
53 156 Bridget Hulslander Piper 1:22:18
54 104 Linda D. Frijolita 1:22:21
55 182 Sheri Thompson TBA 1:23:19
56 131 Brad Wann Cheeto 1:23:35
57 162 Erin Loughlin Dominick 1:23:38
58 163 Stan Lundy Marsh Mellow 1:28:20
59 171 Stacey Todd Isaiah 1:35:02
60 150 Meredith Eddy Mr. Ziffel 1:35:02
61 172 Mary Walinchus Princess 1:35:19
62 157 Terry Jones Porter 1:35:19
63 170 Michelle Sroda TBA 1:38:28
64 168 Sarah Reed TBA 1:38:29
65 140 Vicki Badura TBA 1:41:16
66 183 Lindsay Kennedy TBA 1:41:55
67 113 Bill Lee Dolly 1:42:26
68 152 Kellie Eibling Pearl 1:42:27
69 124 Joann Rouillard Justin 1:51:12
70 144 Lisa Boland TBA 1:51:36


+/- Creede Donkey Dash - Saturday, June 8, 2019

NOTE: Due to washouts and mud slides, the course was changed last minute from 9 miles to 14 with a total 2,500 ft. elevation gain!

Place Home Town Runner Burro Time
1 Broomfield, CO George Zack Jack 2:13.27
2 Manhattan Beach, CA Patrick Sweeney Alice 2:14.30
3 Leadville, CO Marvin Sandavol Buttercup 2:20.41
4 Westcliff, CO Hal Walter Full Tilt Boogie 2:20.44
5 Franktown, CO John Vincent Crazy Horse 2:24.37
6 Palmer Lake, CO Joe Polonsky Jake 2:25.04
7 Colorado Springs, CO Brian Rawlings Lucky 2:38.03
8 Berthoud, CO Chris Malherbe Donkers 2:38.04
9 Pine, CO Kirt Courkamp Ricky Bobby 2:38.05
10 Salida, CO Tracy Loughlin Josie 2:47.54
11 Flagstaff, AZ Brook Wiley Piper 2:51.08
12 Prescott, AZ Bill McMahon Chuy 2:52.14
13 Prescott, AZ Emily McMahon Paco 2:52.15
14 Goldon, CO Robin Steger Sheba 2:57.29
15 Fort Collins, CO KC Young Buckwheat 3:02.48
16 Englewood, NM Shane Wiegand Julia 3:07.28
17 South Fork, CO Lynn D. TAZ 3:07.29
18 Pagosa Springs, CO Colin Gilbertson Big Mac 3:20.23
19 Pagosa Springs, CO Jacob Johnson Sugar Ray 3:20.24
20 Colorado Springs, CO Jeff Janos Dominick 3:20.25
21 Frisco, CO Jack Lohmann Einstein 3:37.55
22 Parker, CO Dallas Kaufman Harper 3:45.36
23 Leadville, CO Smokey Burgess Storm Trooper 3:45.43
24 Leadville, CO Paul Anderson Al Dean 3:45.44
25 Berthoud, CO Natalie Malherbe Big Ben 3:46.56
26 Pueblo, CO Kristi Martel Esther 3:49.22
27/td> Sedalia, CO Crystal Gray Mr. Ziffel 3:49.52
28 Sedalia, CO Michael Welk Oscar 3:49.53
29 Lake City, CO Gerard Johnson Earl 3:54.28
30 Alamosa, CO Dewane Mosher Sysco 3:55.45
31 Fort Collins, CO Jenny Young Apache 3:59.00
32 Salida, CO Lon Vincent Dakota 3:59.01
33 Berthoud, CO Aiden Malherbe Winkie 4:00.09
34 Berthoud, CO Megan Malherbe Nash 4:00.09
35 Manitou Springs, CO Sarah Roueche Koshare 4:25.09
36 Evergreen, CO Caz Perez Brigham 4:28.12
37 South Fork, CO Linda D. Leonidas 4:28.13
38 Boulder, CO Dancer Vernet Marsha 4:31.13
39 Breckenridge, CO Stacey Todd Isaiah 4:31.35
40 Pagosa Springs, CO Nate Travisono Burrito 4:32.16
41 Highlands Ranch, CO Amber Wann Darby 4:32.17
42 Edgewood, CO Stan Lundy Marsh Mellow 4:48.33
43 Colorado Springs, CO Curtis Kincaid Loki 5:01.25
44 Castle Rock, CO Kristine Holvick Bandit 5:04.45
45 Colorado Springs, CO Daniel Kitchie Sugar Shack 5:05.07
46 Idaho Springs, CO Bill Lee Dolly 5:23.02
47 Parker, CO Lora Gallagher Pearl 5:31.23
48 Denver, CO Eric Alstad Bo Duke 5:31.25
49 Highlands Ranch, CO Brad Wann Cheeto DNF
50 Leadville, CO Bob Sweeney Yukon DNF
51 Pueblo, CO Carrie Franchi Frjiolita DNF
52 Dumon, CO Steve Indrehus Rambo DNF
53 Parker, CO Kenda Newman Luke Duke DNF
54 Pagosa Springs, CO Shane Lucero Banjo DNF
55 Manitou Springs, CO Mike Vann Cash DNF


FAIRPLAY

+/- 71st Annual World Championship Pack Burro Race – Burro Days
Fairplay, Colorado – July 28, 2019

For the first time in this race's history, the burros could not go through American Flats to the top of the pass. Instead, they were routed along CR12 for a total of 25 miles on the Long Course:

PlaceRunnerBurroHometownTime
1Marvin SandovalButtercupLeadville, CO4:58:07
2Bob SweeneyYukonLouisville, CO4:58:12
3Louise KuehsterPandoraCastle Rock, CO4:58:17
4George ZackJackBroomfield, CO4:59:23
5Kirt CourkampRicky BobbyPine, CO5:08:52
6Hal WalterFull Tilt BoogieWestcliffe, CO5:41:51
7Jeff BenettAliceLousivell, TX6:26:13
8Leo FungSmokeyCalgary, Canada6:26:16
9Tracy LoughlinJosieSalida, CO6:27:18
10Joe PolonskyJakePalmer Lake, CO6:27:49
11Tim ScaturroCharlieLakewood, CO6:52:16
12Dancer VernetMarshaBoulder, CO7:56:21
13Rohan AuroraAmandaGlendale, CA8:52:54
14Jack LohmannEinsteinFrisco, CO10:10:21
15Casandra PerezBriggsEvergreen, CO10:10:22
16Michael WelkOscarSedalia, CO10:13:03
17Michael KirkShebaCastle Rock, CO10:29:29
18Ben BrewerBanjo BoogBend, OR10:29:30
19Bryan ShaneMargaritaFairplay, CO10:52:59

Short Course – 14.2 miles

PlaceRunnerBurroHometownTime
1 Danny Pedretti Call Annandale, NJ 2:11:19
2 Brian Rawlings Cheeto Colo. Spgs, CO 2:11:21
3 John Vincent Crazy Horse Sedalia, CO 2:17:17
4 Andrew Knutsen Hersey Lakewood, CO 2:17:17
5 Steve Kuehster Finnegan Castle Rock, CO 2:21:35
6 David Carner Ellroy Louisville, CO 2:23:38
7 Roland Brodeur Sugar Shack Colo. Spgs, CO 2:39:00
8 Chris Malherbe Donkers Berthoud, CO 2:39:01
9 Daniel Kitchie Princess Colo. Spgs, CO 2:41:37
10 John Auborn Telma Clementina Ridgecrest, CA 2:49:23
11 Robert Di Pietro Robby Palos Verdes, CA 2:49:24
12 Alec Tulsky Tulsky Idaho Spgs, CO 2:49:25
13 Alicia Miers Nestor Lafayette, CO 2:52:31
14 Dallas Kaufmann Harper Parker, CO 3:00:52
15 Paul Anderson Aldean Leadville, CO 3:01:15
16 Ashley Hancock Cowgirl Evergreen, CO 3:01:57
17 Michelle Hancock Coco Evergreen, CO 3:01:58
18 Michael Banaslak Dominick Denver, CO 3:01:59
19 Roger Pedretti Stanley Lacrosse, WI 3:05:28
20 John Zack AJ (Action Jackson) Broomfield, CO 3:06:19
21 Lon Vincent Dakota Sedalia, CO 3:09:47
22 Jenny Turak Flash Colo. Spgs, CO 3:19:45
23 Meghan Himschoot Big Mac Idledale, CO 3:25:45
24 Jennifer Farrar Sugar Ray Denver, CO 3:25:47
25 Zuri Betz Earl Idaho Spgs, CO 3:33:41
26 Mike Brunette Piper Libertyville, IL 3:33:43
27 Amber Wann Darby Highlands Ranch, CO 3:33:44
28 Erin Farrow Holly Leadville, CO 3:38:32
29 Rick Haussler Moonshine Lakewood, CO 3:38:34
30 Jeff Teiffel Mr. Ziffel Englewood, CO 3:47:53
31 Lynda Blom Jedi Littleton, CO 3:47:54
32 Matthew Walsh Rockey Marina Del Rey, CA 3:47:55
33 Brian Pedretti Teddy Annandale, NJ 3:47:56
34 Alison Conrad Thumper Evergreen, CO 3:48:41
35 Kim Tattle Scratch Westcliffe, CO 3:52:06
36 Curtis Kincaid Coquett Colo. Spgs, CO 3:52:09
37 Natalie Malherbe Ben Berthoud, CO 3:52:18
38 Megan Malherbe Nash Berthoud, CO 3:56:25
39 Geoff Hower Natasha Longmont, CO 3:56:38
40 Stephen Hart Stella Broomfield, CO 3:57:47
41 Robin Steger Pearl Golden, CO 3:57:49
42 Ross Campbell Katy Quispamsis, NB 3:57:50
43 Karin Usko Asstrid Guadalupe Ridgecrest, CA 4:05:52
44 Kim Whelan Hansel Parachute, CO 4:07:08
45 Ana Koeneke Gretel Parachute, CO 4:07:12
46 Zach Thompson Miss Emily Leadville, CO 4:14:28
47 Melanie Layton Goose Conifer, CO 4:14:30
48 Tim Johnson Maverick Wheat Ridge, CO 4:14:31
49 Katherina Papenbrock Bella Ouray, CO 4:14:35
50 Brad Wann Luke Highlands Ranch, CO 4:14:38
51 Angie Harrington Olive Evergreen, CO 4:14:39
52 Steve Indrehus Rambo Dumont, CO 4:17:08
53 Benjamin Wann Burrito Highlands Ranch, CO 4:17:09
54 Kenda Green-Newman Esther Parker, CO 4:34:39
55 Kalianne Zack Bonita Broomfield, CO 4:34:41
56 KC Young Apache Fort Collins, CO 4:39:56
57 Linda Drain Buddy South Fork, CO 4:39:57
58 Aidan Malherbe Winkie Berthoud, CO 4:39:58
59 Stacey Teiffel Big Isaih Breckenridge, CO 4:39:59
60 Jennifer Bitloft Dolly Denver, CO 4:40:32
61 Luis Contreras Leonidas Dana Point, CA 5:06:04
62 Joyce Igasaki Pepsi Rancho Santa Margarita, CA 5:06:23
63 Jennifer Poutlon Nova Bayfield, CO 5:10:11
64 Oscar Banda Loki Joe Dana Point, CA 5:18:53
65 Kim Edwards Cortez Conifer, CO 5:48:41
66 Brenda Rosario Geronimo Lakewood, CO 5:48:42
67 Lynn Drain Lil' Turby South Fork, CO 6:15:58
68 Sandy Reiter Justin Rancho Santa Margarita, CA 6:16:02
69 Emily Thompson Timmy North Vernon, IN 6:37:04
DQ Sarah Rouche Koshare Manitou Springs, CO 5:05:44
DQ Bill Lee Doc Idaho Spgs, CO 6:34:49
DQ Eric Alstad Gary Bo Duke Denver, CO N/A
DNF Joanne Blakely Bandit Ponte Vedra Beach, FL N/A
DNF Angeles Padilla Villa Fijolita Marina Del Rey, CA N/A


LEADVILLE

+/- 70th ANNUAL BOOM DAYS PACK BURRO RACE
Leadville, Colorado – Sunday, August 4, 2019

          Long Course – 21 miles

PositionRunnerBurroTime
1Marvin SandovalButtercup3:45:38
2Hal WalterFullTiltBoogie3:49:57
3Louise KuehsterPandora3:53:48
4Bob SweeneyYukon3:53:54
5Georg eZackJack3:54:17
6Joe PolonskyJake3:58:24
7Jack LohmanEinstein4:24:39
8Tracy LoughlinJosie4:29:51
9Kevin RuppAmanda4:30:57
10Shane WeigandMarshmallow4:36:11
11Jeff BennettAlice4:36:52
12Trey BarnesSmokey4:36:54
13Kirt CourkampRickyBobby4:37:02
14Timothy ScaturroCharlie5:01:07
15Natalie MalherbeBig Ben5:18:33
16Chris MalherbeDonkers5:18:37
17Gwen WalkerMason5:21:53
18Trevor WalkerComet5:21:55
19Jason AntinBig Mac5:55:03
20Mike ChambersSugar Ray5:55:04

          Short Course – 15 miles

PositionRunnerBurroTime
1Roland Brodeur Flash2:37:53
2Steve KuehsterFinnegan2:37:54
3Amber WannCheeto2:45:56
4Alicia MiersNestor2:47:19
5Paul AndersonAl Dean2:47:39
6Robin StegerDOC2:47:47
7Dave EdwardsTaz2:50:06
8Roger PedrettiCall2:50:06
9Kelly DokeTeddy2:50:19
10Dallas KaufmannHarper2:53:27
11Debra LutherJacque3:09:04
12Jolene SandovalSnickers3:09:30
13Lucas TylerLoki3:16:55
14John AubornTelma Clementina3:18:42
15Kiki JarvisJethro3:18:44
16Jennifer StewartPearl3:19:00
17Jeff Janos Dominic3:19:01
18Jess DeuganBonita3:19:02
19Katrin SilvaLuke3:19:19
20Erin Farrow Holly3:19:36
21Ashley HancockCowgirl3:28:54
22Angie HarringtonOlive3:28:56
23Michelle HancockCoco3:29:10
24Jessica SmithJulia3:34:35
25Diane ManziniLeo3:37:32
26Aidan MalherbeWinkie3:39:32
27Rick HausslerMoonshine3:40:26
28Michael WelkOscar3:40:27
29Andy Page Darby3:41:07
30Steve IndrehusRambo3:41:19
31Gianni VeneziaTBA3:46:45
32Vicki BaduraJames Dean 3:47:40
33Janine JacquesPiper3:49:46
34Melanie LaytonGoose3:54:18
35Tim JohnsonMaverick3:54:19
36Dancer VernetMarsha3:57:01
37Izzy BranscombTBA4:06:24
38Linda D.Buddy Brat4:06:36
39Zach ThompsonMiss Emily4:06:40
40Sarah RouecheKoshare4:18:42
41Colby JacquesBanjo4:20:29
42Eric AlstadGary Bo Duke4:21:38
43Kim EdwardsGeronimo4:26:27
44Dawn LarsonCortez4:26:30
45Karin UskoASStrid Guadalupe4:32:31
46Stacey ToddIsaiah4:32:35
47Stacie PageMomma Esther4:32:42
48Everett YpsilantisTBA4:32:47
49Monica AlasBonita4:35:01
50Brad WannLoki Joe4:39:31
51Bill LeeDolly4:43:44
52Rachel LinkPiper4:46:56
53Emily ThompsonTimmy5:05:36
54Lynn D.Buddy Brat5:12:32


BUENA VISTA

+/- 46 Years of Buena Vista Gold Rush Days Pack Burro Race
Buena Vista, Colorado – Sunday, August 11, 2019

PositionRunnerBurroTime
1Louise KuehsterPandora1:55:16
2Tracy LoughlinMary Margaret1:55:17
3Marvin SandovalButtercup1:55:17
4Kirt CourkampRicky Bobby1:55:21
5Bob SweeneyYukon1:55:28
6Hal WalterBoogie1:58:55
7George ZackJack1:58:58
8Patrick SweeneyAlice2:12:07
9Colin GilbertsonSmokey2:12:09
10Roland BrodeurJacque2:12:58
11Smokey BurgessCheeto2:13:00
12Steve KuehsterFinnegan2:13:15
13Brian RawlingsLucky2:13:42
14Chris MalherbeDonkers2:24:39
15Tim ScaturroCharlie2:24:43
16Wayne BlomJedi2:41:42
17Ashley HancockCowgirl2:45:14
18Michaelle HancockCoco2:45:17
19Dustin RichardsDewey2:46:06
20Lynn D.Josie2:50:40
21Dave EdwardsTaz2:50:51
22Meghan HimschootSheba2:50:53
23Natalie MaherbeBig Ben2:51:41
24Dallas KaufmannHarper2:51:53
25David CarnerElroy2:52:49
26Lauren BrittMr. Ziffel2:53:06
27Micheal BanasiakAction Jackson2:53:09
28R.J. FogalStanley2:58:04
29Debra LutherDoc3:03:36
30Robin StegerPiper3:05:44
31Julie NaniaEster3:05:47
32Kiki JarvisLeo3:05:47
33Jeff JanosDominick3:07:52
34Benjamin WAnnBurrito3:07:52
35Amber WannDarby3:07:54
36Jenny TurakSugar Shack3:10:05
37Martin SchneeklothBuddy3:14:03
38Kelly DokeLaredo3:14:04
39Casandra PerezBrigham3:14:11
40Sarah FrenchBanjo3:14:20
41Rick HausslerMoonshine3:14:45
42Hayden BlomRocky3:15:00
43Lindi BlomLulu3:15:15
44Chris MargraveAmanda3:21:52
45Aidan MalherbeWinkie3:21:54
46Kim TattleScratch3:24:16
47Paul AndersonAl Dean3:24:27
48Scott AndersonStorm Trooper3:24:27
49Sarah RouecheKoshare3:24:57
50Zach ThompsonMiss Emily3:32:19
51Chris HansonBig Mac3:32:21
52Ashley HansonSugar Ray3:32:22
53Ami RiscassiBandit3:33:37
54Jack LohmannEinstein3:34:11
55Amber ConversePearl3:38:10
56Ginna IrwinKaty3:38:14
57Dancer VernetMarsha3:40:56
58Emily ThompsonTimmy3:40:56
59Stacey ToddIsaiah3:41:06
60Geoff HowerNatasha52:56.0
61Melanie LaytonMaverick3:53:01
62Steve CassinGoose3:53:54
63Megan MalherbeNash4:26:08
64Morgan HillLoki4:37:10
65Ross KellerBuster4:40:45
66Linda D.Pepsi5:26:00
67Bill LeeDolly5:26:01
68Amy HoltschlagFosterDNF
69Joe PolonskyJakeDNF
70Alla RubinsteinThumperDNF


VICTOR

+/- 6th Annual Victor Burro Racing Gold Rush Challenge
Victor, Colorado – Saturday, September 7, 2019

PositionRunnerBurroTime
1Marvin SandovalTBA1:08:21
2Bob SweeneyTBA1:08:30
3John VincentTBA1:12:24
4Tracy LoughlinTBA1:12:34
5Brian RawlingsTBA1:13:40
6Roland BrodeurTBA1:17:23
7Jonathan GearTBA1:20:16
8Steve KuehsterTBA1:26:19
9Jeff JanosTBA1:26:26
10Joe PolonskyTBA1:26:41
11KC YoungTBA1:27:04
12Chris MalherbeTBA1:27:05
13Lynn D.TBA1:29:02
14Dallas KaufmannTBA1:29:07
15Mel RedeniusTBA1:32:52
16Danny GnojekTBA1:32:53
17Lon VincentTBA1:34:48
18Debra LutherTBA1:44:39
19Alex PapasTBA1:44:44
20Jenny TurakTBA1:45:59
21Amy HoltschlagTBA1:49:21
22Natalie MalherbeTBA1:50:19
23Aidan MalherbeTBA1:50:21
24Jeff SmulleTBA1:57:53
25Brian PetersonTBA1:57:54
26Megan MalherbeTBA1:58:57
27Linda D.TBA1:59:02
28Laurel DoxseyTBA1:59:02
29Allison CuttingTBA1:59:06
30Jack LohmannTBA1:59:07
31Michael WelkTBA1:59:11
32Benjamin WannTBA1:59:12
33Mike VannTBA1:59:22
34Eric AlstadTBA1:59:32
35April HoskinsTBA2:02:40
36Brad WannTBA2:03:04
37Kenda NewmanTBA2:18:56
38Myles PowersTBA2:19:09
39Colleen JulianTBA2:20:02
40Sarah RouecheTBA2:23:49
41Casandra PerezTBA2:24:23
42Dave EdwardsTBA2:29:54
43Jess MorrisTBA2:29:54
44Andrew McBryanTBA2:32:28
45Dancer VernetTBA2:33:26
46Caitlin MorissetteTBA2:35:51
47Keri HobertTBA2:36:28
48Cariyla DawsonTBA2:36:43
49Paige KrekelerTBA2:36:46
50Bill LeeTBA2:37:28
51Carol Von MichaelisTBA2:37:34
52Justin GarberTBA2:38:28
53Amy WankeTBA2:38:55